createdAt,value
2019-03-28T00:00:00.841Z,18.32
2019-03-28T00:02:29.608Z,20.15
2019-03-28T00:04:58.467Z,21.95
2019-03-28T00:07:27.334Z,19.52
2019-03-28T00:09:56.172Z,19.37
2019-03-28T00:12:25.901Z,20.77
2019-03-28T00:14:55.204Z,24.25
2019-03-28T00:17:24.190Z,19.32
2019-03-28T00:19:53.220Z,18.85
2019-03-28T00:22:34.478Z,18.85
2019-03-28T00:25:06.417Z,20.52
2019-03-28T00:27:35.170Z,17.73
2019-03-28T00:30:05.912Z,19.95
2019-03-28T00:32:34.857Z,19.95
2019-03-28T00:35:03.986Z,19.50
2019-03-28T00:37:32.831Z,20.43
2019-03-28T00:40:01.832Z,19.73
2019-03-28T00:42:30.929Z,21.10
2019-03-28T00:44:59.913Z,19.70
2019-03-28T00:47:28.895Z,19.55
2019-03-28T00:49:57.824Z,20.30
2019-03-28T00:52:26.852Z,20.30
2019-03-28T00:54:55.886Z,19.98
2019-03-28T00:57:24.767Z,19.15
2019-03-28T00:59:55.815Z,20.52
2019-03-28T01:02:24.719Z,19.67
2019-03-28T01:04:53.503Z,20.70
2019-03-28T01:07:22.850Z,20.20
2019-03-28T01:09:51.661Z,20.45
2019-03-28T01:12:20.416Z,20.65
2019-03-28T01:14:49.203Z,20.85
2019-03-28T01:17:18.001Z,19.48
2019-03-28T01:19:46.808Z,19.55
2019-03-28T01:22:15.489Z,19.45
2019-03-28T01:24:44.217Z,19.82
2019-03-28T01:27:13.951Z,19.50
2019-03-28T01:29:43.049Z,19.30
2019-03-28T01:32:11.724Z,19.85
2019-03-28T01:34:40.479Z,19.25
2019-03-28T01:37:09.198Z,21.62
2019-03-28T01:39:38.023Z,19.02
2019-03-28T01:42:06.777Z,21.20
2019-03-28T01:44:35.519Z,18.17
2019-03-28T01:47:04.360Z,18.82
2019-03-28T01:49:33.093Z,19.42
2019-03-28T01:52:04.280Z,18.07
2019-03-28T01:54:32.590Z,18.50
2019-03-28T01:57:10.786Z,19.42
2019-03-28T01:59:33.080Z,19.32
2019-03-28T02:02:01.805Z,21.42
2019-03-28T02:04:30.476Z,21.15
2019-03-28T02:06:59.473Z,20.90
2019-03-28T02:09:28.163Z,20.57
2019-03-28T02:11:57.038Z,20.23
2019-03-28T02:14:25.824Z,23.25
2019-03-28T02:16:54.562Z,22.02
2019-03-28T02:19:23.367Z,19.77
2019-03-28T02:21:52.778Z,21.02
2019-03-28T02:24:22.034Z,23.12
2019-03-28T02:26:50.817Z,23.32
2019-03-28T02:29:19.725Z,21.87
2019-03-28T02:31:48.700Z,22.20
2019-03-28T02:34:17.467Z,20.43
2019-03-28T02:36:46.228Z,21.50
2019-03-28T02:39:14.952Z,21.25
2019-03-28T02:41:43.673Z,21.85
2019-03-28T02:44:12.491Z,20.48
2019-03-28T02:46:41.323Z,21.60
2019-03-28T02:49:10.149Z,21.82
2019-03-28T02:51:38.882Z,20.25
2019-03-28T02:54:07.612Z,23.07
2019-03-28T02:56:37.133Z,20.55
2019-03-28T02:59:06.011Z,19.98
2019-03-28T03:01:34.780Z,19.95
2019-03-28T03:04:03.643Z,20.95
2019-03-28T03:06:32.364Z,20.50
2019-03-28T03:09:01.081Z,20.92
2019-03-28T03:11:30.003Z,20.75
2019-03-28T03:13:58.771Z,18.70
2019-03-28T03:16:27.616Z,18.52
2019-03-28T03:18:56.437Z,19.27
2019-03-28T03:21:25.220Z,19.23
2019-03-28T03:23:54.109Z,20.62
2019-03-28T03:26:22.926Z,20.43
2019-03-28T03:28:51.858Z,19.65
2019-03-28T03:31:21.890Z,20.45
2019-03-28T03:33:51.291Z,20.05
2019-03-28T03:36:20.226Z,20.15
2019-03-28T03:38:48.967Z,18.48
2019-03-28T03:41:17.843Z,20.02
2019-03-28T03:43:46.834Z,20.00
2019-03-28T03:46:15.621Z,19.82
2019-03-28T03:48:44.395Z,18.98
2019-03-28T03:51:13.226Z,18.95
2019-03-28T03:53:42.002Z,20.15
2019-03-28T03:56:10.821Z,18.65
2019-03-28T03:58:39.630Z,19.00
2019-03-28T04:01:08.362Z,17.90
2019-03-28T04:03:37.084Z,17.45
2019-03-28T04:06:05.817Z,20.20
2019-03-28T04:08:34.612Z,19.60
2019-03-28T04:11:03.320Z,19.48
2019-03-28T04:13:32.094Z,18.90
2019-03-28T04:16:00.962Z,19.82
2019-03-28T04:18:29.685Z,19.52
2019-03-28T04:20:58.505Z,20.23
2019-03-28T04:23:27.236Z,18.95
2019-03-28T04:25:56.048Z,18.73
2019-03-28T04:28:32.100Z,19.37
2019-03-28T04:30:55.653Z,18.85
2019-03-28T04:33:24.342Z,20.88
2019-03-28T04:35:53.140Z,18.42
2019-03-28T04:38:21.828Z,19.70
2019-03-28T04:40:51.680Z,19.45
2019-03-28T04:43:20.558Z,19.80
2019-03-28T04:45:49.359Z,18.95
2019-03-28T04:48:18.117Z,19.23
2019-03-28T04:50:46.928Z,18.32
2019-03-28T04:53:15.812Z,19.27
2019-03-28T04:55:44.601Z,19.07
2019-03-28T04:58:13.674Z,21.35
2019-03-28T05:00:43.388Z,20.30
2019-03-28T05:03:12.184Z,20.10
2019-03-28T05:05:41.033Z,19.57
2019-03-28T05:08:09.796Z,19.85
2019-03-28T05:10:38.534Z,19.62
2019-03-28T05:13:07.256Z,20.70
2019-03-28T05:15:36.276Z,19.30
2019-03-28T05:18:05.119Z,19.67
2019-03-28T05:20:34.677Z,20.52
2019-03-28T05:23:03.637Z,19.55
2019-03-28T05:25:32.424Z,19.10
2019-03-28T05:28:02.108Z,18.02
2019-03-28T05:30:30.947Z,17.85
2019-03-28T05:32:59.781Z,18.67
2019-03-28T05:35:28.619Z,17.67
2019-03-28T05:37:57.384Z,18.75
2019-03-28T05:40:28.283Z,17.55
2019-03-28T05:42:57.012Z,18.05
2019-03-28T05:45:25.774Z,17.52
2019-03-28T05:47:54.469Z,18.85
2019-03-28T05:50:23.250Z,19.82
2019-03-28T05:52:52.097Z,17.20
2019-03-28T05:55:20.834Z,18.48
2019-03-28T05:57:49.748Z,21.50
2019-03-28T06:00:18.523Z,18.02
2019-03-28T06:02:47.199Z,19.15
2019-03-28T06:05:16.098Z,18.32
2019-03-28T06:07:44.831Z,19.62
2019-03-28T06:10:16.240Z,18.70
2019-03-28T06:12:44.410Z,17.55
2019-03-28T06:15:13.695Z,17.67
2019-03-28T06:17:42.443Z,19.67
2019-03-28T06:20:11.681Z,17.48
2019-03-28T06:22:40.459Z,18.45
2019-03-28T06:25:09.573Z,19.60
2019-03-28T06:27:38.469Z,18.85
2019-03-28T06:30:08.283Z,20.20
2019-03-28T06:32:42.861Z,19.35
2019-03-28T06:35:08.051Z,18.85
2019-03-28T06:37:36.946Z,19.07
2019-03-28T06:40:07.080Z,19.00
2019-03-28T06:42:37.201Z,18.07
2019-03-28T06:45:06.812Z,20.08
2019-03-28T06:47:35.623Z,17.60
2019-03-28T06:50:05.148Z,16.77
2019-03-28T06:52:33.951Z,18.20
2019-03-28T06:55:02.800Z,17.67
2019-03-28T06:57:31.853Z,19.80
2019-03-28T07:00:01.676Z,16.30
2019-03-28T07:02:30.745Z,18.17
2019-03-28T07:04:59.589Z,17.25
2019-03-28T07:07:28.402Z,16.40
2019-03-28T07:09:57.159Z,17.92
2019-03-28T07:12:25.978Z,16.52
2019-03-28T07:14:55.186Z,17.50
2019-03-28T07:17:23.980Z,17.60
2019-03-28T07:19:52.697Z,17.17
2019-03-28T07:22:21.475Z,18.02
2019-03-28T07:24:50.229Z,18.37
2019-03-28T07:27:18.978Z,17.77
2019-03-28T07:29:51.156Z,17.65
2019-03-28T07:32:18.384Z,19.55
2019-03-28T07:34:48.156Z,17.85
2019-03-28T07:37:16.965Z,20.70
2019-03-28T07:39:45.737Z,19.95
2019-03-28T07:42:14.628Z,19.23
2019-03-28T07:44:43.432Z,19.48
2019-03-28T07:47:12.208Z,20.15
2019-03-28T07:49:40.973Z,20.30
2019-03-28T07:52:09.787Z,21.20
2019-03-28T07:54:39.313Z,22.90
2019-03-28T07:57:08.324Z,19.98
2019-03-28T07:59:37.687Z,21.12
2019-03-28T08:02:06.819Z,20.97
2019-03-28T08:04:35.630Z,20.30
2019-03-28T08:07:04.643Z,19.80
2019-03-28T08:09:36.842Z,19.40
2019-03-28T08:12:04.901Z,20.68
2019-03-28T08:14:33.858Z,23.52
2019-03-28T08:17:02.587Z,23.12
2019-03-28T08:19:32.382Z,23.73
2019-03-28T08:22:01.202Z,21.65
2019-03-28T08:24:30.070Z,23.10
2019-03-28T08:26:58.938Z,22.55
2019-03-28T08:29:28.448Z,24.32
2019-03-28T08:31:57.347Z,24.02
2019-03-28T08:34:26.146Z,22.32
2019-03-28T08:36:55.425Z,22.77
2019-03-28T08:39:24.288Z,24.05
2019-03-28T08:41:53.097Z,23.30
2019-03-28T08:44:22.826Z,22.80
2019-03-28T08:46:51.809Z,27.00
2019-03-28T08:49:20.678Z,22.85
2019-03-28T08:51:49.526Z,23.15
2019-03-28T08:54:19.397Z,24.67
2019-03-28T08:56:48.694Z,22.42
2019-03-28T08:59:17.467Z,23.32
2019-03-28T09:01:46.221Z,23.15
2019-03-28T09:04:15.179Z,21.40
2019-03-28T09:06:43.938Z,23.45
2019-03-28T09:09:12.852Z,21.48
2019-03-28T09:11:42.020Z,22.22
2019-03-28T09:14:10.957Z,22.07
2019-03-28T09:16:39.828Z,21.70
2019-03-28T09:19:08.702Z,20.57
2019-03-28T09:21:37.561Z,19.90
2019-03-28T09:24:07.296Z,19.17
2019-03-28T09:26:36.095Z,21.30
2019-03-28T09:29:04.880Z,20.80
2019-03-28T09:31:33.740Z,21.33
2019-03-28T09:34:02.855Z,20.80
2019-03-28T09:36:31.725Z,22.58
2019-03-28T09:39:00.738Z,20.35
2019-03-28T09:41:29.565Z,20.08
2019-03-28T09:43:58.522Z,20.90
2019-03-28T09:46:27.333Z,19.85
2019-03-28T09:48:56.397Z,21.73
2019-03-28T09:51:25.353Z,21.93
2019-03-28T09:53:54.159Z,21.50
2019-03-28T09:56:23.004Z,18.57
2019-03-28T09:58:52.023Z,19.10
2019-03-28T10:01:21.318Z,18.75
2019-03-28T10:03:51.132Z,18.57
2019-03-28T10:06:19.935Z,15.20
2019-03-28T10:08:48.781Z,15.70
2019-03-28T10:11:17.733Z,16.53
2019-03-28T10:13:46.552Z,16.20
2019-03-28T10:16:15.369Z,15.70
2019-03-28T10:18:44.235Z,16.40
2019-03-28T10:21:12.994Z,16.73
2019-03-28T10:23:44.725Z,19.47
2019-03-28T10:26:13.541Z,15.77
2019-03-28T10:28:42.665Z,17.47
2019-03-28T10:31:16.715Z,19.00
2019-03-28T10:33:42.583Z,16.60
2019-03-28T10:36:11.393Z,17.27
2019-03-28T10:38:40.270Z,17.13
2019-03-28T10:41:09.192Z,16.73
2019-03-28T10:43:39.365Z,16.07
2019-03-28T10:46:08.509Z,17.90
2019-03-28T10:48:37.391Z,16.93
2019-03-28T10:51:06.358Z,13.90
2019-03-28T10:53:35.246Z,17.10
2019-03-28T10:56:04.185Z,16.57
2019-03-28T10:58:35.016Z,25.23
2019-03-28T11:01:05.360Z,14.83
2019-03-28T11:03:34.341Z,11.50
2019-03-28T11:06:03.435Z,11.90
2019-03-28T11:08:36.406Z,12.70
2019-03-28T11:11:04.632Z,12.20
2019-03-28T11:13:33.978Z,10.93
2019-03-28T11:16:02.782Z,10.20
2019-03-28T11:18:31.767Z,12.43
2019-03-28T11:21:00.641Z,13.37
2019-03-28T11:23:29.498Z,7.27
2019-03-28T11:25:58.775Z,10.30
2019-03-28T11:28:32.577Z,9.97
2019-03-28T11:31:01.646Z,9.07
2019-03-28T11:33:30.852Z,7.30
2019-03-28T11:35:59.742Z,6.10
2019-03-28T11:38:29.046Z,5.97
2019-03-28T11:40:57.853Z,6.30
2019-03-28T11:43:26.686Z,6.87
2019-03-28T11:45:55.773Z,7.10
2019-03-28T11:48:24.631Z,7.30
2019-03-28T11:50:54.451Z,8.90
2019-03-28T11:53:23.456Z,8.47
2019-03-28T11:55:52.308Z,6.70
2019-03-28T11:58:21.186Z,6.53
2019-03-28T12:00:54.524Z,8.30
2019-03-28T12:03:24.850Z,7.10
2019-03-28T12:05:55.276Z,6.70
2019-03-28T12:08:24.337Z,5.87
2019-03-28T12:10:53.267Z,5.50
2019-03-28T12:13:22.120Z,5.67
2019-03-28T12:15:52.256Z,5.33
2019-03-28T12:18:21.281Z,5.03
2019-03-28T12:20:50.054Z,5.30
2019-03-28T12:23:18.909Z,5.57
2019-03-28T12:25:47.831Z,5.37
2019-03-28T12:28:16.684Z,4.73
2019-03-28T12:30:45.615Z,5.97
2019-03-28T12:33:14.704Z,4.17
2019-03-28T12:35:43.602Z,4.67
2019-03-28T12:38:14.261Z,4.17
2019-03-28T12:40:43.212Z,4.10
2019-03-28T12:43:12.021Z,3.10
2019-03-28T12:45:41.006Z,3.93
2019-03-28T12:48:10.404Z,3.60
2019-03-28T12:50:39.321Z,4.20
2019-03-28T12:53:08.107Z,4.17
2019-03-28T12:55:37.041Z,4.37
2019-03-28T12:58:05.884Z,5.00
2019-03-28T13:00:36.147Z,4.40
2019-03-28T13:03:05.607Z,4.90
2019-03-28T13:05:35.091Z,4.23
2019-03-28T13:08:07.648Z,4.80
2019-03-28T13:10:36.491Z,4.90
2019-03-28T13:13:08.438Z,5.70
2019-03-28T13:15:39.944Z,5.67
2019-03-28T13:18:09.255Z,5.73
2019-03-28T13:20:38.612Z,6.10
2019-03-28T13:23:07.620Z,7.60
2019-03-28T13:25:50.698Z,6.47
2019-03-28T13:28:19.883Z,6.03
2019-03-28T13:30:48.881Z,6.83
2019-03-28T13:33:18.173Z,6.20
2019-03-28T13:35:47.476Z,5.63
2019-03-28T13:38:29.147Z,6.80
2019-03-28T13:40:58.898Z,6.30
2019-03-28T13:43:27.850Z,6.40
2019-03-28T13:45:56.865Z,5.77
2019-03-28T13:48:26.266Z,5.63
2019-03-28T13:50:55.084Z,6.00
2019-03-28T13:53:24.313Z,5.50
2019-03-28T13:55:53.199Z,6.07
2019-03-28T13:58:22.249Z,5.53
2019-03-28T14:00:54.404Z,6.70
2019-03-28T14:03:22.284Z,6.17
2019-03-28T14:05:51.196Z,5.60
2019-03-28T14:08:20.167Z,6.17
2019-03-28T14:10:49.055Z,6.03
2019-03-28T14:13:17.974Z,6.30
2019-03-28T14:15:47.062Z,5.80
2019-03-28T14:18:15.938Z,6.10
2019-03-28T14:20:44.923Z,5.80
2019-03-28T14:23:14.797Z,6.57
2019-03-28T14:25:44.419Z,5.67
2019-03-28T14:28:13.521Z,5.67
2019-03-28T14:30:42.477Z,5.23
2019-03-28T14:33:15.627Z,4.97
2019-03-28T14:35:43.555Z,5.03
2019-03-28T14:38:12.798Z,5.30
2019-03-28T14:40:47.514Z,7.60
2019-03-28T14:43:16.576Z,4.90
2019-03-28T14:45:45.923Z,5.10
2019-03-28T14:48:14.974Z,5.37
2019-03-28T14:50:45.035Z,6.17
2019-03-28T14:53:14.197Z,5.90
2019-03-28T14:55:43.324Z,5.93
2019-03-28T14:58:12.352Z,6.33
2019-03-28T15:00:50.507Z,5.90
2019-03-28T15:03:26.084Z,5.20
2019-03-28T15:05:51.173Z,4.43
2019-03-28T15:08:20.196Z,5.93
2019-03-28T15:10:49.272Z,5.50
2019-03-28T15:13:18.310Z,6.30
2019-03-28T15:15:48.518Z,5.60
2019-03-28T15:18:17.752Z,5.60
2019-03-28T15:20:46.973Z,6.10
2019-03-28T15:23:17.393Z,6.20
2019-03-28T15:25:46.825Z,5.40
2019-03-28T15:28:16.259Z,6.00
2019-03-28T15:30:46.101Z,6.47
2019-03-28T15:33:16.208Z,6.40
2019-03-28T15:35:46.826Z,5.60
2019-03-28T15:38:17.144Z,5.97
2019-03-28T15:40:49.191Z,6.10
2019-03-28T15:43:18.806Z,6.13
2019-03-28T15:45:48.461Z,6.40
2019-03-28T15:48:18.593Z,6.30
2019-03-28T15:50:47.913Z,6.03
2019-03-28T15:53:17.503Z,6.23
2019-03-28T15:55:46.579Z,5.97
2019-03-28T15:58:22.976Z,6.00
2019-03-28T16:00:46.241Z,6.30
2019-03-28T16:03:15.197Z,6.47
2019-03-28T16:05:57.207Z,6.60
2019-03-28T16:08:14.649Z,6.57
2019-03-28T16:10:47.371Z,6.10
2019-03-28T16:13:17.581Z,7.17
2019-03-28T16:15:46.858Z,6.00
2019-03-28T16:18:16.064Z,6.37
2019-03-28T16:20:45.235Z,6.90
2019-03-28T16:23:14.258Z,6.33
2019-03-28T16:25:43.100Z,6.33
2019-03-28T16:28:12.036Z,5.30
2019-03-28T16:30:43.706Z,5.60
2019-03-28T16:33:13.004Z,5.50
2019-03-28T16:35:41.936Z,4.80
2019-03-28T16:38:11.163Z,4.63
2019-03-28T16:40:40.186Z,4.63
2019-03-28T16:43:10.470Z,4.50
2019-03-28T16:45:39.503Z,4.33
2019-03-28T16:48:08.592Z,4.90
2019-03-28T16:50:37.457Z,4.93
2019-03-28T16:53:06.313Z,4.37
2019-03-28T16:55:35.330Z,5.60
2019-03-28T16:58:04.391Z,5.27
2019-03-28T17:00:38.022Z,6.00
2019-03-28T17:03:07.574Z,5.90
2019-03-28T17:05:36.750Z,6.30
2019-03-28T17:08:06.434Z,6.77
2019-03-28T17:10:49.913Z,6.70
2019-03-28T17:13:18.714Z,6.30
2019-03-28T17:15:47.677Z,6.90
2019-03-28T17:18:18.615Z,7.43
2019-03-28T17:20:47.336Z,7.23
2019-03-28T17:23:16.231Z,8.00
2019-03-28T17:25:45.165Z,8.20
2019-03-28T17:28:14.057Z,7.33
2019-03-28T17:30:42.975Z,7.00
2019-03-28T17:33:13.570Z,7.27
2019-03-28T17:35:42.759Z,6.73
2019-03-28T17:38:11.669Z,7.17
2019-03-28T17:40:40.585Z,8.50
2019-03-28T17:43:09.766Z,7.97
2019-03-28T17:45:38.767Z,7.67
2019-03-28T17:48:07.774Z,7.87
2019-03-28T17:50:36.776Z,8.23
2019-03-28T17:53:05.631Z,8.40
2019-03-28T17:55:35.788Z,8.10
2019-03-28T17:58:04.960Z,8.27
2019-03-28T18:00:36.314Z,8.03
2019-03-28T18:03:09.474Z,8.40
2019-03-28T18:05:36.237Z,8.97
2019-03-28T18:08:05.403Z,9.53
2019-03-28T18:10:34.518Z,7.80
2019-03-28T18:13:03.539Z,9.13
2019-03-28T18:15:32.531Z,8.80
2019-03-28T18:18:01.476Z,9.77
2019-03-28T18:20:30.332Z,9.90
2019-03-28T18:23:00.331Z,11.00
2019-03-28T18:25:30.440Z,9.33
2019-03-28T18:27:59.556Z,9.00
2019-03-28T18:30:28.744Z,10.10
2019-03-28T18:32:57.860Z,10.57
2019-03-28T18:35:26.715Z,10.40
2019-03-28T18:37:55.733Z,10.03
2019-03-28T18:40:24.783Z,10.27
2019-03-28T18:42:53.699Z,10.43
2019-03-28T18:45:22.511Z,10.90
2019-03-28T18:47:51.769Z,10.77
2019-03-28T18:50:20.808Z,11.83
2019-03-28T18:52:50.813Z,11.13
2019-03-28T18:55:20.789Z,11.10
2019-03-28T18:57:49.931Z,10.80
2019-03-28T19:00:20.461Z,10.30
2019-03-28T19:02:49.637Z,10.43
2019-03-28T19:05:20.052Z,11.47
2019-03-28T19:07:49.606Z,10.80
2019-03-28T19:10:18.776Z,11.47
2019-03-28T19:12:48.116Z,10.30
2019-03-28T19:15:17.971Z,11.37
2019-03-28T19:17:46.946Z,11.57
2019-03-28T19:20:16.041Z,9.57
2019-03-28T19:22:45.289Z,9.50
2019-03-28T19:25:14.328Z,9.80
2019-03-28T19:27:44.814Z,9.20
2019-03-28T19:30:14.102Z,9.10
2019-03-28T19:32:43.003Z,9.37
2019-03-28T19:35:12.366Z,10.03
2019-03-28T19:37:41.728Z,9.10
2019-03-28T19:40:12.368Z,8.80
2019-03-28T19:42:41.279Z,9.50
2019-03-28T19:45:12.347Z,8.90
2019-03-28T19:47:42.277Z,8.87
2019-03-28T19:50:22.323Z,9.07
2019-03-28T19:52:51.775Z,9.00
2019-03-28T19:55:23.465Z,8.03
2019-03-28T19:57:52.758Z,8.37
2019-03-28T20:00:21.733Z,8.40
2019-03-28T20:02:50.653Z,8.70
2019-03-28T20:05:19.508Z,8.10
2019-03-28T20:07:48.399Z,8.10
2019-03-28T20:10:18.569Z,8.27
2019-03-28T20:12:47.837Z,8.30
2019-03-28T20:15:16.891Z,8.30
2019-03-28T20:17:47.957Z,7.90
2019-03-28T20:20:17.122Z,8.80
2019-03-28T20:22:46.093Z,8.50
2019-03-28T20:25:15.012Z,7.40
2019-03-28T20:27:44.368Z,7.87
2019-03-28T20:30:13.309Z,7.70
2019-03-28T20:32:42.314Z,7.33
2019-03-28T20:35:11.707Z,7.03
2019-03-28T20:37:42.503Z,7.30
2019-03-28T20:40:11.910Z,7.20
2019-03-28T20:42:41.626Z,7.20
2019-03-28T20:45:11.238Z,7.13
2019-03-28T20:47:40.197Z,7.17
2019-03-28T20:50:12.870Z,6.63
2019-03-28T20:52:41.792Z,7.40
2019-03-28T20:55:11.594Z,7.07
2019-03-28T20:57:40.646Z,7.20
2019-03-28T21:00:11.370Z,7.40
2019-03-28T21:02:40.341Z,6.93
2019-03-28T21:05:10.596Z,7.57
2019-03-28T21:07:39.657Z,7.77
2019-03-28T21:10:22.587Z,7.93
2019-03-28T21:12:51.558Z,7.43
2019-03-28T21:15:20.524Z,8.13
2019-03-28T21:17:49.392Z,8.27
2019-03-28T21:20:19.731Z,7.27
2019-03-28T21:22:51.746Z,8.23
2019-03-28T21:25:20.678Z,8.07
2019-03-28T21:27:49.872Z,7.40
2019-03-28T21:30:20.350Z,7.70
2019-03-28T21:32:55.408Z,8.53
2019-03-28T21:35:20.220Z,8.23
2019-03-28T21:37:49.080Z,7.67
2019-03-28T21:40:18.011Z,8.08
2019-03-28T21:42:46.843Z,7.00
2019-03-28T21:45:15.891Z,8.10
2019-03-28T21:47:44.702Z,7.60
2019-03-28T21:50:13.618Z,8.93
2019-03-28T21:52:42.494Z,7.33
2019-03-28T21:55:11.752Z,8.00
2019-03-28T21:57:42.538Z,8.30
2019-03-28T22:00:12.242Z,8.20
2019-03-28T22:02:41.148Z,7.85
2019-03-28T22:05:10.222Z,8.13
2019-03-28T22:07:39.334Z,8.43
2019-03-28T22:10:09.126Z,8.13
2019-03-28T22:12:38.096Z,8.23
2019-03-28T22:15:07.826Z,9.45
2019-03-28T22:17:36.851Z,8.98
2019-03-28T22:20:07.707Z,8.35
2019-03-28T22:22:37.617Z,8.18
2019-03-28T22:25:07.644Z,8.35
2019-03-28T22:27:36.895Z,8.28
2019-03-28T22:30:06.657Z,8.43
2019-03-28T22:32:35.594Z,9.53
2019-03-28T22:35:05.023Z,8.33
2019-03-28T22:37:34.020Z,8.40
2019-03-28T22:40:04.281Z,9.50
2019-03-28T22:42:33.824Z,8.78
2019-03-28T22:45:02.807Z,8.03
2019-03-28T22:47:35.638Z,9.28
2019-03-28T22:50:03.763Z,9.28
2019-03-28T22:52:32.700Z,9.35
2019-03-28T22:55:01.567Z,8.20
2019-03-28T22:57:30.529Z,9.55
2019-03-28T22:59:59.664Z,9.50
2019-03-28T23:02:28.996Z,10.15
2019-03-28T23:04:57.907Z,9.05
2019-03-28T23:07:27.668Z,9.35
2019-03-28T23:09:57.546Z,9.25
2019-03-28T23:12:26.602Z,8.38
2019-03-28T23:14:55.462Z,9.58
2019-03-28T23:17:27.725Z,9.00
2019-03-28T23:19:57.918Z,9.55
2019-03-28T23:22:26.847Z,9.50
2019-03-28T23:24:55.729Z,9.23
2019-03-28T23:27:25.385Z,9.98
2019-03-28T23:29:54.276Z,9.75
2019-03-28T23:32:23.071Z,10.00
2019-03-28T23:34:51.978Z,9.60
2019-03-28T23:37:24.859Z,9.95
2019-03-28T23:39:51.504Z,9.48
2019-03-28T23:42:20.360Z,10.15
2019-03-28T23:44:50.214Z,9.60
2019-03-28T23:47:18.956Z,9.48
2019-03-28T23:49:47.773Z,9.53
2019-03-28T23:52:16.965Z,10.45
2019-03-28T23:54:45.859Z,9.20
2019-03-28T23:57:14.666Z,9.53
2019-03-28T23:59:43.558Z,9.33
